La Russell, Missouri
Current Conditions -  °F | °C
As of 10:15 AM on Monday 22 Dec 2014 (Local Time) from KHFJ Reporting Station
Moderate Rain Moderate Rain  
Wind Chill: 38°   Ceiling: 900
Heat Index: 43°   Visibility: 5mi
Dew Point: 43°   Wind: 8mph
Humidity: 100%   Direction: 130°SE
Pressure: 29.6"   Gusts: NA
Location:  37.14°N, 94.06°W
Report Text: KHFJ 221615Z AUTO 13007KT 5SM RA BKN009 OVC014 06/06 A2960 RMK AO2
Loading
Personal Weather Stations






























Interactive Weather Map New forecast layout! Learn more

10-Day Weather Forecast

Advertisements
Track Severe Weather on mobile